sensor_id;sensor_type;location;lat;lon;timestamp;pressure;altitude;pressure_sealevel;temperature;humidity
81155;BME280;70631;50.436;7.826;2023-12-28T00:00:24;98854.13;;;8.20;59.37
81155;BME280;70631;50.436;7.826;2023-12-28T00:02:49;98866.03;;;8.25;58.80
81155;BME280;70631;50.436;7.826;2023-12-28T00:05:14;98867.03;;;8.34;58.27
81155;BME280;70631;50.436;7.826;2023-12-28T00:07:39;98862.69;;;8.43;58.80
81155;BME280;70631;50.436;7.826;2023-12-28T00:10:05;98848.06;;;8.48;58.77
81155;BME280;70631;50.436;7.826;2023-12-28T00:12:31;98848.63;;;8.52;58.02
81155;BME280;70631;50.436;7.826;2023-12-28T00:14:56;98836.31;;;8.61;58.03
81155;BME280;70631;50.436;7.826;2023-12-28T00:17:21;98848.19;;;8.66;58.13
81155;BME280;70631;50.436;7.826;2023-12-28T00:19:46;98849.47;;;8.72;58.38
81155;BME280;70631;50.436;7.826;2023-12-28T00:22:12;98847.50;;;8.74;57.22
81155;BME280;70631;50.436;7.826;2023-12-28T00:24:37;98838.97;;;8.80;56.66
81155;BME280;70631;50.436;7.826;2023-12-28T00:27:02;98841.88;;;8.86;57.27
81155;BME280;70631;50.436;7.826;2023-12-28T00:29:28;98848.03;;;8.87;57.54
81155;BME280;70631;50.436;7.826;2023-12-28T00:31:54;98850.00;;;8.85;56.64
81155;BME280;70631;50.436;7.826;2023-12-28T00:34:19;98865.66;;;8.88;57.07
81155;BME280;70631;50.436;7.826;2023-12-28T00:36:45;98861.63;;;8.94;57.25
81155;BME280;70631;50.436;7.826;2023-12-28T00:39:10;98867.63;;;8.96;56.99
81155;BME280;70631;50.436;7.826;2023-12-28T00:41:35;98889.44;;;8.99;57.22
81155;BME280;70631;50.436;7.826;2023-12-28T00:44:01;98888.16;;;9.03;56.74
81155;BME280;70631;50.436;7.826;2023-12-28T00:46:27;98886.06;;;9.07;56.99
81155;BME280;70631;50.436;7.826;2023-12-28T00:48:52;98896.97;;;9.13;57.29
81155;BME280;70631;50.436;7.826;2023-12-28T00:51:17;98907.03;;;9.19;57.70
81155;BME280;70631;50.436;7.826;2023-12-28T00:53:43;98908.41;;;9.24;57.95
81155;BME280;70631;50.436;7.826;2023-12-28T00:56:09;98910.66;;;9.28;57.63
81155;BME280;70631;50.436;7.826;2023-12-28T00:58:39;98906.72;;;9.32;57.86
81155;BME280;70631;50.436;7.826;2023-12-28T01:01:04;98900.84;;;9.38;58.08
81155;BME280;70631;50.436;7.826;2023-12-28T01:03:29;98918.34;;;9.41;58.94
81155;BME280;70631;50.436;7.826;2023-12-28T01:05:55;98918.34;;;9.41;59.01
81155;BME280;70631;50.436;7.826;2023-12-28T01:08:20;98931.34;;;9.44;58.99
81155;BME280;70631;50.436;7.826;2023-12-28T01:10:45;98950.66;;;9.46;59.65
81155;BME280;70631;50.436;7.826;2023-12-28T01:13:11;98936.38;;;9.47;59.70
81155;BME280;70631;50.436;7.826;2023-12-28T01:15:36;98940.00;;;9.46;59.91
81155;BME280;70631;50.436;7.826;2023-12-28T01:18:01;98945.34;;;9.46;59.17
81155;BME280;70631;50.436;7.826;2023-12-28T01:20:26;98948.13;;;9.44;59.82
81155;BME280;70631;50.436;7.826;2023-12-28T01:22:52;98966.75;;;9.44;59.76
81155;BME280;70631;50.436;7.826;2023-12-28T01:25:17;98966.06;;;9.42;60.17
81155;BME280;70631;50.436;7.826;2023-12-28T01:27:42;98973.34;;;9.40;60.55
81155;BME280;70631;50.436;7.826;2023-12-28T01:30:08;98965.50;;;9.39;60.79
81155;BME280;70631;50.436;7.826;2023-12-28T01:32:33;98988.19;;;9.33;60.79
81155;BME280;70631;50.436;7.826;2023-12-28T01:34:58;98999.66;;;9.34;60.62
81155;BME280;70631;50.436;7.826;2023-12-28T01:37:24;98995.31;;;9.33;61.01
81155;BME280;70631;50.436;7.826;2023-12-28T01:39:49;98998.22;;;9.30;60.83
81155;BME280;70631;50.436;7.826;2023-12-28T01:42:14;98996.16;;;9.24;60.96
81155;BME280;70631;50.436;7.826;2023-12-28T01:44:40;98986.38;;;9.14;61.36
81155;BME280;70631;50.436;7.826;2023-12-28T01:47:05;98993.50;;;9.14;61.66
81155;BME280;70631;50.436;7.826;2023-12-28T01:49:32;98997.97;;;9.13;61.78
81155;BME280;70631;50.436;7.826;2023-12-28T01:51:59;99000.88;;;9.10;62.11
81155;BME280;70631;50.436;7.826;2023-12-28T01:54:25;98984.81;;;9.12;62.21
81155;BME280;70631;50.436;7.826;2023-12-28T01:56:51;98980.59;;;9.09;62.29
81155;BME280;70631;50.436;7.826;2023-12-28T01:59:16;99008.16;;;9.08;62.83
81155;BME280;70631;50.436;7.826;2023-12-28T02:01:43;99008.00;;;9.10;62.81
81155;BME280;70631;50.436;7.826;2023-12-28T02:04:09;99008.84;;;9.10;63.38
81155;BME280;70631;50.436;7.826;2023-12-28T02:06:35;99001.31;;;9.06;63.55
81155;BME280;70631;50.436;7.826;2023-12-28T02:09:00;99003.13;;;9.05;64.00
81155;BME280;70631;50.436;7.826;2023-12-28T02:11:25;99002.16;;;9.06;64.30
81155;BME280;70631;50.436;7.826;2023-12-28T02:13:51;99005.09;;;9.03;64.75
81155;BME280;70631;50.436;7.826;2023-12-28T02:16:21;99000.47;;;9.05;64.76
81155;BME280;70631;50.436;7.826;2023-12-28T02:18:51;98998.66;;;9.06;65.00
81155;BME280;70631;50.436;7.826;2023-12-28T02:21:19;98999.47;;;9.06;65.30
81155;BME280;70631;50.436;7.826;2023-12-28T02:23:49;98989.56;;;9.08;66.17
81155;BME280;70631;50.436;7.826;2023-12-28T02:26:15;98996.28;;;9.12;66.63
81155;BME280;70631;50.436;7.826;2023-12-28T02:28:41;98967.75;;;9.05;66.98
81155;BME280;70631;50.436;7.826;2023-12-28T02:31:07;98979.63;;;9.01;67.60
81155;BME280;70631;50.436;7.826;2023-12-28T02:33:40;98990.13;;;9.02;67.83
81155;BME280;70631;50.436;7.826;2023-12-28T02:36:10;98993.63;;;9.03;67.86
81155;BME280;70631;50.436;7.826;2023-12-28T02:38:37;98998.22;;;9.01;67.98
81155;BME280;70631;50.436;7.826;2023-12-28T02:41:03;98987.31;;;9.04;68.55
81155;BME280;70631;50.436;7.826;2023-12-28T02:43:29;98990.41;;;8.99;68.68
81155;BME280;70631;50.436;7.826;2023-12-28T02:45:54;98990.41;;;8.99;69.02
81155;BME280;70631;50.436;7.826;2023-12-28T02:48:19;98979.78;;;8.99;69.32
81155;BME280;70631;50.436;7.826;2023-12-28T02:50:45;98977.13;;;8.99;69.07
81155;BME280;70631;50.436;7.826;2023-12-28T02:53:10;98965.50;;;9.00;69.18
81155;BME280;70631;50.436;7.826;2023-12-28T02:55:35;98976.41;;;8.97;69.74
81155;BME280;70631;50.436;7.826;2023-12-28T02:58:00;98963.00;;;8.99;69.65
81155;BME280;70631;50.436;7.826;2023-12-28T03:00:26;98968.84;;;9.02;69.76
81155;BME280;70631;50.436;7.826;2023-12-28T03:02:52;98969.69;;;9.03;70.46
81155;BME280;70631;50.436;7.826;2023-12-28T03:05:17;98961.03;;;9.01;70.71
81155;BME280;70631;50.436;7.826;2023-12-28T03:07:43;98951.25;;;9.01;70.78
81155;BME280;70631;50.436;7.826;2023-12-28T03:10:09;98956.56;;;9.01;71.48
81155;BME280;70631;50.436;7.826;2023-12-28T03:12:36;98954.88;;;9.00;71.73
81155;BME280;70631;50.436;7.826;2023-12-28T03:15:01;98960.19;;;9.00;71.45
81155;BME280;70631;50.436;7.826;2023-12-28T03:17:27;98975.84;;;9.03;71.65
81155;BME280;70631;50.436;7.826;2023-12-28T03:19:54;98974.19;;;9.02;72.04
81155;BME280;70631;50.436;7.826;2023-12-28T03:22:19;98966.91;;;9.04;72.28
81155;BME280;70631;50.436;7.826;2023-12-28T03:24:44;98969.41;;;9.06;72.79
81155;BME280;70631;50.436;7.826;2023-12-28T03:27:10;98964.25;;;9.04;73.19
81155;BME280;70631;50.436;7.826;2023-12-28T03:29:36;98984.81;;;9.02;73.46
81155;BME280;70631;50.436;7.826;2023-12-28T03:32:01;98974.47;;;8.99;73.78
81155;BME280;70631;50.436;7.826;2023-12-28T03:34:27;98963.81;;;8.99;74.08
81155;BME280;70631;50.436;7.826;2023-12-28T03:36:54;98980.88;;;8.97;74.26
81155;BME280;70631;50.436;7.826;2023-12-28T03:39:20;98975.72;;;8.95;74.42
81155;BME280;70631;50.436;7.826;2023-12-28T03:41:45;98967.75;;;8.95;74.45
81155;BME280;70631;50.436;7.826;2023-12-28T03:44:10;98978.38;;;8.95;75.03
81155;BME280;70631;50.436;7.826;2023-12-28T03:46:35;98981.16;;;8.94;74.71
81155;BME280;70631;50.436;7.826;2023-12-28T03:49:01;98975.03;;;8.93;74.71
81155;BME280;70631;50.436;7.826;2023-12-28T03:51:26;98985.78;;;8.92;75.17
81155;BME280;70631;50.436;7.826;2023-12-28T03:53:51;98982.00;;;8.94;75.32
81155;BME280;70631;50.436;7.826;2023-12-28T03:56:27;98997.41;;;8.91;75.26
81155;BME280;70631;50.436;7.826;2023-12-28T03:58:53;98983.97;;;8.92;75.32
81155;BME280;70631;50.436;7.826;2023-12-28T04:01:20;98996.28;;;8.93;75.60
81155;BME280;70631;50.436;7.826;2023-12-28T04:03:46;99000.88;;;8.91;75.31
81155;BME280;70631;50.436;7.826;2023-12-28T04:06:11;99020.19;;;8.93;75.23
81155;BME280;70631;50.436;7.826;2023-12-28T04:08:37;99025.38;;;8.95;75.33
81155;BME280;70631;50.436;7.826;2023-12-28T04:11:03;99026.47;;;8.92;75.33
81155;BME280;70631;50.436;7.826;2023-12-28T04:13:28;99026.47;;;8.92;75.87
81155;BME280;70631;50.436;7.826;2023-12-28T04:15:53;99021.16;;;8.92;75.23
81155;BME280;70631;50.436;7.826;2023-12-28T04:18:19;99026.72;;;8.89;75.70
81155;BME280;70631;50.436;7.826;2023-12-28T04:20:44;99022.28;;;8.90;75.95
81155;BME280;70631;50.436;7.826;2023-12-28T04:23:10;99025.19;;;8.86;76.00
81155;BME280;70631;50.436;7.826;2023-12-28T04:25:35;99028.44;;;8.90;75.80
81155;BME280;70631;50.436;7.826;2023-12-28T04:28:00;99023.13;;;8.90;76.17
81155;BME280;70631;50.436;7.826;2023-12-28T04:30:25;99033.75;;;8.90;76.04
81155;BME280;70631;50.436;7.826;2023-12-28T04:32:52;99034.00;;;8.87;76.32
81155;BME280;70631;50.436;7.826;2023-12-28T04:35:17;99021.41;;;8.89;75.81
81155;BME280;70631;50.436;7.826;2023-12-28T04:37:43;99026.47;;;8.92;76.12
81155;BME280;70631;50.436;7.826;2023-12-28T04:40:08;99035.16;;;8.94;76.06
81155;BME280;70631;50.436;7.826;2023-12-28T04:42:34;99035.44;;;8.91;75.99
81155;BME280;70631;50.436;7.826;2023-12-28T04:44:59;99023.81;;;8.92;75.87
81155;BME280;70631;50.436;7.826;2023-12-28T04:47:24;99033.44;;;8.83;76.59
81155;BME280;70631;50.436;7.826;2023-12-28T04:49:49;99043.09;;;8.84;76.57
81155;BME280;70631;50.436;7.826;2023-12-28T04:52:15;99042.94;;;8.86;76.63
81155;BME280;70631;50.436;7.826;2023-12-28T04:54:40;99038.09;;;8.91;76.62
81155;BME280;70631;50.436;7.826;2023-12-28T04:57:06;99034.16;;;8.95;76.32
81155;BME280;70631;50.436;7.826;2023-12-28T04:59:37;99031.25;;;8.98;76.34
81155;BME280;70631;50.436;7.826;2023-12-28T05:02:02;99032.63;;;9.02;76.12
81155;BME280;70631;50.436;7.826;2023-12-28T05:04:28;99024.66;;;9.02;76.02
81155;BME280;70631;50.436;7.826;2023-12-28T05:06:53;99022.00;;;9.02;76.34
81155;BME280;70631;50.436;7.826;2023-12-28T05:09:18;99025.38;;;9.04;76.35
81155;BME280;70631;50.436;7.826;2023-12-28T05:11:43;99033.75;;;9.09;76.40
81155;BME280;70631;50.436;7.826;2023-12-28T05:14:09;99033.66;;;9.11;76.34
81155;BME280;70631;50.436;7.826;2023-12-28T05:16:34;99036.41;;;9.09;76.49
81155;BME280;70631;50.436;7.826;2023-12-28T05:18:59;99043.53;;;9.09;76.17
81155;BME280;70631;50.436;7.826;2023-12-28T05:21:24;99032.53;;;9.13;76.21
81155;BME280;70631;50.436;7.826;2023-12-28T05:23:50;99035.88;;;9.15;76.16
81155;BME280;70631;50.436;7.826;2023-12-28T05:26:15;99030.97;;;9.21;76.12
81155;BME280;70631;50.436;7.826;2023-12-28T05:28:40;99040.34;;;9.25;75.85
81155;BME280;70631;50.436;7.826;2023-12-28T05:31:05;99039.94;;;9.19;75.83
81155;BME280;70631;50.436;7.826;2023-12-28T05:33:31;99028.59;;;9.17;76.35
81155;BME280;70631;50.436;7.826;2023-12-28T05:35:56;99047.22;;;9.17;76.42
81155;BME280;70631;50.436;7.826;2023-12-28T05:38:21;99045.25;;;9.19;76.09
81155;BME280;70631;50.436;7.826;2023-12-28T05:40:46;99043.56;;;9.18;76.05
81155;BME280;70631;50.436;7.826;2023-12-28T05:43:12;99044.84;;;9.14;76.01
81155;BME280;70631;50.436;7.826;2023-12-28T05:45:37;99043.84;;;9.15;76.32
81155;BME280;70631;50.436;7.826;2023-12-28T05:48:02;99051.69;;;9.17;76.24
81155;BME280;70631;50.436;7.826;2023-12-28T05:50:28;99051.13;;;9.13;75.93
81155;BME280;70631;50.436;7.826;2023-12-28T05:52:53;99049.03;;;9.17;76.11
81155;BME280;70631;50.436;7.826;2023-12-28T05:55:18;99055.03;;;9.19;75.81
81155;BME280;70631;50.436;7.826;2023-12-28T05:57:43;99045.25;;;9.19;75.83
81155;BME280;70631;50.436;7.826;2023-12-28T06:00:09;99053.38;;;9.18;75.76
81155;BME280;70631;50.436;7.826;2023-12-28T06:02:35;99038.13;;;9.20;75.73
81155;BME280;70631;50.436;7.826;2023-12-28T06:05:00;99034.75;;;9.18;75.71
81155;BME280;70631;50.436;7.826;2023-12-28T06:07:26;99044.41;;;9.19;75.83
81155;BME280;70631;50.436;7.826;2023-12-28T06:09:51;99033.78;;;9.19;75.48
81155;BME280;70631;50.436;7.826;2023-12-28T06:12:16;99033.63;;;9.21;75.21
81155;BME280;70631;50.436;7.826;2023-12-28T06:14:41;99049.59;;;9.21;75.54
81155;BME280;70631;50.436;7.826;2023-12-28T06:17:07;99040.91;;;9.18;75.38
81155;BME280;70631;50.436;7.826;2023-12-28T06:19:32;99047.50;;;9.14;75.71
81155;BME280;70631;50.436;7.826;2023-12-28T06:21:58;99049.16;;;9.15;75.48
81155;BME280;70631;50.436;7.826;2023-12-28T06:24:24;99040.63;;;9.12;75.38
81155;BME280;70631;50.436;7.826;2023-12-28T06:26:49;99045.81;;;9.13;75.38
81155;BME280;70631;50.436;7.826;2023-12-28T06:29:14;99043.16;;;9.13;75.29
81155;BME280;70631;50.436;7.826;2023-12-28T06:31:40;99032.66;;;9.12;75.14
81155;BME280;70631;50.436;7.826;2023-12-28T06:34:06;99049.69;;;9.09;75.24
81155;BME280;70631;50.436;7.826;2023-12-28T06:36:32;99046.47;;;9.06;75.37
81155;BME280;70631;50.436;7.826;2023-12-28T06:38:58;99047.59;;;9.03;75.17
81155;BME280;70631;50.436;7.826;2023-12-28T06:41:24;99065.50;;;9.01;75.07
81155;BME280;70631;50.436;7.826;2023-12-28T06:43:49;99056.69;;;9.01;75.46
81155;BME280;70631;50.436;7.826;2023-12-28T06:46:15;99058.66;;;8.99;75.17
81155;BME280;70631;50.436;7.826;2023-12-28T06:48:40;99050.13;;;8.95;75.26
81155;BME280;70631;50.436;7.826;2023-12-28T06:51:06;99055.44;;;8.95;75.47
81155;BME280;70631;50.436;7.826;2023-12-28T06:53:31;99059.75;;;8.96;75.36
81155;BME280;70631;50.436;7.826;2023-12-28T06:55:56;99051.09;;;8.94;75.32
81155;BME280;70631;50.436;7.826;2023-12-28T06:58:22;99061.72;;;8.94;75.16
81155;BME280;70631;50.436;7.826;2023-12-28T07:00:47;99060.03;;;8.93;75.49
81155;BME280;70631;50.436;7.826;2023-12-28T07:03:12;99062.00;;;8.91;75.38
81155;BME280;70631;50.436;7.826;2023-12-28T07:05:37;99060.31;;;8.90;75.18
81155;BME280;70631;50.436;7.826;2023-12-28T07:08:03;99069.00;;;8.92;75.20
81155;BME280;70631;50.436;7.826;2023-12-28T07:10:28;99061.03;;;8.92;75.20
81155;BME280;70631;50.436;7.826;2023-12-28T07:12:54;99062.97;;;8.90;75.22
81155;BME280;70631;50.436;7.826;2023-12-28T07:15:19;99072.03;;;8.87;75.09
81155;BME280;70631;50.436;7.826;2023-12-28T07:17:44;99070.50;;;8.85;75.56
81155;BME280;70631;50.436;7.826;2023-12-28T07:20:10;99073.41;;;8.82;75.10
81155;BME280;70631;50.436;7.826;2023-12-28T07:22:36;99083.78;;;8.85;75.57
81155;BME280;70631;50.436;7.826;2023-12-28T07:25:01;99084.59;;;8.85;75.47
81155;BME280;70631;50.436;7.826;2023-12-28T07:27:27;99078.19;;;8.88;75.43
81155;BME280;70631;50.436;7.826;2023-12-28T07:29:52;99080.84;;;8.88;75.08
81155;BME280;70631;50.436;7.826;2023-12-28T07:32:17;99085.19;;;8.89;74.92
81155;BME280;70631;50.436;7.826;2023-12-28T07:34:42;99078.19;;;8.88;75.20
81155;BME280;70631;50.436;7.826;2023-12-28T07:37:08;99075.53;;;8.88;75.23
81155;BME280;70631;50.436;7.826;2023-12-28T07:39:33;99076.50;;;8.87;75.23
81155;BME280;70631;50.436;7.826;2023-12-28T07:41:59;99078.19;;;8.88;75.17
81155;BME280;70631;50.436;7.826;2023-12-28T07:44:24;99077.09;;;8.91;74.58
81155;BME280;70631;50.436;7.826;2023-12-28T07:46:50;99076.38;;;8.88;74.62
81155;BME280;70631;50.436;7.826;2023-12-28T07:49:15;99079.03;;;8.88;74.52
81155;BME280;70631;50.436;7.826;2023-12-28T07:51:40;99080.84;;;8.88;74.44
81155;BME280;70631;50.436;7.826;2023-12-28T07:54:06;99077.34;;;8.87;74.88
81155;BME280;70631;50.436;7.826;2023-12-28T07:56:31;99074.56;;;8.89;74.59
81155;BME280;70631;50.436;7.826;2023-12-28T07:58:56;99069.97;;;8.91;74.35
81155;BME280;70631;50.436;7.826;2023-12-28T08:01:22;99075.97;;;8.93;74.44
81155;BME280;70631;50.436;7.826;2023-12-28T08:03:47;99075.00;;;8.94;74.86
81155;BME280;70631;50.436;7.826;2023-12-28T08:06:13;99082.69;;;8.97;74.18
81155;BME280;70631;50.436;7.826;2023-12-28T08:08:38;99087.03;;;8.98;74.34
81155;BME280;70631;50.436;7.826;2023-12-28T08:11:03;99084.38;;;8.98;74.32
81155;BME280;70631;50.436;7.826;2023-12-28T08:13:29;99091.38;;;8.99;74.15
81155;BME280;70631;50.436;7.826;2023-12-28T08:15:54;99082.28;;;9.02;73.90
81155;BME280;70631;50.436;7.826;2023-12-28T08:18:19;99089.41;;;9.01;74.28
81155;BME280;70631;50.436;7.826;2023-12-28T08:20:44;99082.00;;;9.05;73.95
81155;BME280;70631;50.436;7.826;2023-12-28T08:23:10;99090.53;;;9.08;73.60
81155;BME280;70631;50.436;7.826;2023-12-28T08:25:35;99095.84;;;9.08;73.56
81155;BME280;70631;50.436;7.826;2023-12-28T08:28:00;99109.00;;;9.10;73.75
81155;BME280;70631;50.436;7.826;2023-12-28T08:30:26;99102.28;;;9.06;73.62
81155;BME280;70631;50.436;7.826;2023-12-28T08:32:52;99110.59;;;9.12;74.00
81155;BME280;70631;50.436;7.826;2023-12-28T08:35:17;99093.38;;;9.16;73.64
81155;BME280;70631;50.436;7.826;2023-12-28T08:37:43;99099.41;;;9.18;73.55
81155;BME280;70631;50.436;7.826;2023-12-28T08:40:08;99097.00;;;9.25;73.23
81155;BME280;70631;50.436;7.826;2023-12-28T08:42:34;99098.41;;;9.29;72.97
81155;BME280;70631;50.436;7.826;2023-12-28T08:44:59;99099.00;;;9.33;73.01
81155;BME280;70631;50.436;7.826;2023-12-28T08:47:24;99110.19;;;9.36;72.35
81155;BME280;70631;50.436;7.826;2023-12-28T08:49:50;99110.06;;;9.38;72.35
81155;BME280;70631;50.436;7.826;2023-12-28T08:52:15;99112.72;;;9.38;71.59
81155;BME280;70631;50.436;7.826;2023-12-28T08:54:40;99106.84;;;9.44;71.59
81155;BME280;70631;50.436;7.826;2023-12-28T08:57:06;99104.75;;;9.47;72.03
81155;BME280;70631;50.436;7.826;2023-12-28T08:59:31;99119.16;;;9.45;71.49
81155;BME280;70631;50.436;7.826;2023-12-28T09:01:56;99124.91;;;9.40;71.79
81155;BME280;70631;50.436;7.826;2023-12-28T09:04:22;99125.19;;;9.37;71.74
81155;BME280;70631;50.436;7.826;2023-12-28T09:06:47;99125.31;;;9.36;71.89
81155;BME280;70631;50.436;7.826;2023-12-28T09:09:12;99127.56;;;9.40;71.52
81155;BME280;70631;50.436;7.826;2023-12-28T09:11:37;99132.59;;;9.53;71.73
81155;BME280;70631;50.436;7.826;2023-12-28T09:14:03;99131.22;;;9.68;71.30
81155;BME280;70631;50.436;7.826;2023-12-28T09:16:28;99152.78;;;9.75;71.05
81155;BME280;70631;50.436;7.826;2023-12-28T09:18:53;99147.19;;;9.78;70.69
81155;BME280;70631;50.436;7.826;2023-12-28T09:21:19;99140.47;;;9.84;70.96
81155;BME280;70631;50.436;7.826;2023-12-28T09:23:45;99140.75;;;9.90;70.54
81155;BME280;70631;50.436;7.826;2023-12-28T09:26:11;99143.13;;;9.84;70.26
81155;BME280;70631;50.436;7.826;2023-12-28T09:28:36;99137.13;;;9.82;70.42
81155;BME280;70631;50.436;7.826;2023-12-28T09:31:02;99141.59;;;9.81;70.02
81155;BME280;70631;50.436;7.826;2023-12-28T09:33:27;99149.56;;;9.91;70.58
81155;BME280;70631;50.436;7.826;2023-12-28T09:35:52;99153.34;;;10.07;70.05
81155;BME280;70631;50.436;7.826;2023-12-28T09:38:18;99162.63;;;10.23;69.08
81155;BME280;70631;50.436;7.826;2023-12-28T09:40:44;99146.88;;;10.39;68.45
81155;BME280;70631;50.436;7.826;2023-12-28T09:45:38;99140.09;;;10.64;67.47
81155;BME280;70631;50.436;7.826;2023-12-28T09:48:04;99131.13;;;10.65;67.24
81155;BME280;70631;50.436;7.826;2023-12-28T09:50:29;99131.41;;;10.62;67.45
81155;BME280;70631;50.436;7.826;2023-12-28T09:52:55;99128.88;;;10.97;66.49
81155;BME280;70631;50.436;7.826;2023-12-28T09:55:20;99129.16;;;11.22;66.52
81155;BME280;70631;50.436;7.826;2023-12-28T09:57:46;99128.97;;;11.33;65.54
81155;BME280;70631;50.436;7.826;2023-12-28T10:00:12;99129.34;;;11.38;65.30
81155;BME280;70631;50.436;7.826;2023-12-28T10:02:39;99127.38;;;11.40;65.34
81155;BME280;70631;50.436;7.826;2023-12-28T10:05:06;99125.88;;;11.55;64.66
81155;BME280;70631;50.436;7.826;2023-12-28T10:07:31;99134.94;;;11.45;64.10
81155;BME280;70631;50.436;7.826;2023-12-28T10:09:57;99144.53;;;11.38;63.78
81155;BME280;70631;50.436;7.826;2023-12-28T10:12:22;99140.34;;;11.35;64.49
81155;BME280;70631;50.436;7.826;2023-12-28T10:14:50;99144.28;;;11.31;64.29
81155;BME280;70631;50.436;7.826;2023-12-28T10:17:15;99156.63;;;11.32;64.61
81155;BME280;70631;50.436;7.826;2023-12-28T10:19:40;99148.63;;;11.32;64.31
81155;BME280;70631;50.436;7.826;2023-12-28T10:22:06;99147.81;;;11.31;63.50
81155;BME280;70631;50.436;7.826;2023-12-28T10:24:31;99139.66;;;11.33;63.68
81155;BME280;70631;50.436;7.826;2023-12-28T10:26:56;99144.22;;;11.41;64.43
81155;BME280;70631;50.436;7.826;2023-12-28T10:29:24;99151.63;;;11.47;64.32
81155;BME280;70631;50.436;7.826;2023-12-28T10:31:50;99151.88;;;11.53;64.14
81155;BME280;70631;50.436;7.826;2023-12-28T10:34:16;99163.22;;;11.55;63.67
81155;BME280;70631;50.436;7.826;2023-12-28T10:36:42;99153.13;;;11.49;62.72
81155;BME280;70631;50.436;7.826;2023-12-28T10:39:09;99155.38;;;11.54;63.38
81155;BME280;70631;50.436;7.826;2023-12-28T10:41:35;99152.78;;;11.62;63.13
81155;BME280;70631;50.436;7.826;2023-12-28T10:44:04;99149.66;;;11.67;63.03
81155;BME280;70631;50.436;7.826;2023-12-28T10:46:39;99160.03;;;11.70;63.03
81155;BME280;70631;50.436;7.826;2023-12-28T10:49:14;99165.69;;;11.67;61.89
81155;BME280;70631;50.436;7.826;2023-12-28T10:51:42;99165.16;;;11.63;62.06
81155;BME280;70631;50.436;7.826;2023-12-28T10:54:28;99161.41;;;11.56;62.53
81155;BME280;70631;50.436;7.826;2023-12-28T10:57:07;99153.25;;;11.57;62.49
81155;BME280;70631;50.436;7.826;2023-12-28T11:02:02;99161.25;;;11.57;62.41
81155;BME280;70631;50.436;7.826;2023-12-28T11:04:48;99152.56;;;11.55;62.84
81155;BME280;70631;50.436;7.826;2023-12-28T11:07:15;99146.31;;;11.64;62.05
81155;BME280;70631;50.436;7.826;2023-12-28T11:09:42;99150.06;;;11.72;62.29
81155;BME280;70631;50.436;7.826;2023-12-28T11:12:08;99153.56;;;11.72;62.17
81155;BME280;70631;50.436;7.826;2023-12-28T11:14:36;99132.22;;;11.72;61.92
81155;BME280;70631;50.436;7.826;2023-12-28T11:17:04;99133.06;;;11.73;61.44
81155;BME280;70631;50.436;7.826;2023-12-28T11:19:30;99136.72;;;11.72;62.03
81155;BME280;70631;50.436;7.826;2023-12-28T11:21:56;99136.97;;;11.78;61.29
81155;BME280;70631;50.436;7.826;2023-12-28T11:24:22;99122.53;;;11.71;61.51
81155;BME280;70631;50.436;7.826;2023-12-28T11:26:55;99133.75;;;11.75;61.06
81155;BME280;70631;50.436;7.826;2023-12-28T11:29:21;99129.94;;;11.77;61.22
81155;BME280;70631;50.436;7.826;2023-12-28T11:31:54;99137.09;;;11.77;61.18
81155;BME280;70631;50.436;7.826;2023-12-28T11:34:24;99131.66;;;11.69;60.00
81155;BME280;70631;50.436;7.826;2023-12-28T11:36:52;99121.00;;;11.69;61.02
81155;BME280;70631;50.436;7.826;2023-12-28T11:39:30;99119.88;;;11.71;61.36
81155;BME280;70631;50.436;7.826;2023-12-28T11:42:06;99118.41;;;11.77;61.37
81155;BME280;70631;50.436;7.826;2023-12-28T11:44:39;99110.50;;;11.85;61.42
81155;BME280;70631;50.436;7.826;2023-12-28T11:47:12;99115.63;;;11.96;61.49
81155;BME280;70631;50.436;7.826;2023-12-28T11:49:38;99106.47;;;11.99;60.20
81155;BME280;70631;50.436;7.826;2023-12-28T11:52:05;99096.25;;;11.94;60.04
81155;BME280;70631;50.436;7.826;2023-12-28T11:54:31;99106.00;;;12.03;60.53
81155;BME280;70631;50.436;7.826;2023-12-28T11:56:56;99100.34;;;12.06;60.98
81155;BME280;70631;50.436;7.826;2023-12-28T11:59:21;99084.00;;;12.09;60.60
81155;BME280;70631;50.436;7.826;2023-12-28T12:01:53;99096.31;;;12.02;59.77
81155;BME280;70631;50.436;7.826;2023-12-28T12:04:21;99089.44;;;12.00;59.62
81155;BME280;70631;50.436;7.826;2023-12-28T12:06:47;99085.56;;;11.94;60.35
81155;BME280;70631;50.436;7.826;2023-12-28T12:09:13;99087.94;;;11.97;59.98
81155;BME280;70631;50.436;7.826;2023-12-28T12:11:39;99093.56;;;11.94;60.09
81155;BME280;70631;50.436;7.826;2023-12-28T12:14:11;99078.56;;;11.93;59.69
81155;BME280;70631;50.436;7.826;2023-12-28T12:16:37;99076.41;;;11.97;59.77
81155;BME280;70631;50.436;7.826;2023-12-28T12:19:05;99069.75;;;12.27;58.76
81155;BME280;70631;50.436;7.826;2023-12-28T12:21:34;99067.41;;;12.23;58.85
81155;BME280;70631;50.436;7.826;2023-12-28T12:24:00;99076.22;;;12.16;58.78
81155;BME280;70631;50.436;7.826;2023-12-28T12:26:26;99064.97;;;12.12;58.30
81155;BME280;70631;50.436;7.826;2023-12-28T12:28:51;99065.09;;;12.03;58.06
81155;BME280;70631;50.436;7.826;2023-12-28T12:31:17;99063.09;;;12.05;58.18
81155;BME280;70631;50.436;7.826;2023-12-28T12:33:43;99057.88;;;11.95;58.65
81155;BME280;70631;50.436;7.826;2023-12-28T12:36:08;99050.50;;;12.15;58.13
81155;BME280;70631;50.436;7.826;2023-12-28T12:38:34;99044.88;;;12.00;57.99
81155;BME280;70631;50.436;7.826;2023-12-28T12:41:00;99063.56;;;12.00;58.29
81155;BME280;70631;50.436;7.826;2023-12-28T12:43:25;99050.03;;;11.93;58.30
81155;BME280;70631;50.436;7.826;2023-12-28T12:45:51;99044.88;;;12.00;58.44
81155;BME280;70631;50.436;7.826;2023-12-28T12:48:17;99046.03;;;11.98;58.45
81155;BME280;70631;50.436;7.826;2023-12-28T12:50:43;99039.19;;;11.95;58.75
81155;BME280;70631;50.436;7.826;2023-12-28T12:53:08;99011.41;;;11.88;58.55
81155;BME280;70631;50.436;7.826;2023-12-28T12:55:35;99034.91;;;11.84;58.32
81155;BME280;70631;50.436;7.826;2023-12-28T12:58:00;99029.03;;;11.99;57.61
81155;BME280;70631;50.436;7.826;2023-12-28T13:00:27;99032.38;;;12.01;58.12
81155;BME280;70631;50.436;7.826;2023-12-28T13:02:52;99020.69;;;12.02;58.03
81155;BME280;70631;50.436;7.826;2023-12-28T13:05:21;99024.63;;;12.15;58.29